createdAt,value
2023-05-14T00:00:16.630Z,25.110714
2023-05-14T00:05:16.051Z,25.043662
2023-05-14T00:10:15.762Z,25.112057
2023-05-14T00:15:15.913Z,24.936879
2023-05-14T00:20:16.099Z,24.975000
2023-05-14T00:25:15.730Z,25.005634
2023-05-14T00:30:15.765Z,25.104965
2023-05-14T00:35:16.780Z,24.960993
2023-05-14T00:40:16.158Z,24.807042
2023-05-14T00:45:16.103Z,24.843262
2023-05-14T00:50:15.716Z,24.934043
2023-05-14T00:55:15.534Z,25.086525
2023-05-14T01:00:15.885Z,24.978723
2023-05-14T01:05:15.925Z,24.929787
2023-05-14T01:10:15.683Z,24.902817
2023-05-14T01:15:17.096Z,24.970922
2023-05-14T01:20:16.087Z,25.073239
2023-05-14T01:25:16.007Z,24.947518
2023-05-14T01:30:16.567Z,24.932624
2023-05-14T01:35:15.866Z,24.956738
2023-05-14T01:40:16.058Z,24.965957
2023-05-14T01:45:15.905Z,24.907092
2023-05-14T01:50:16.380Z,24.837324
2023-05-14T01:55:16.048Z,24.832168
2023-05-14T02:00:15.839Z,24.720567
2023-05-14T02:05:15.674Z,24.616197
2023-05-14T02:10:15.637Z,24.375352
2023-05-14T02:15:16.209Z,24.407801
2023-05-14T02:20:15.817Z,24.559441
2023-05-14T02:25:15.624Z,24.416084
2023-05-14T02:30:16.147Z,24.389437
2023-05-14T02:35:15.999Z,24.278322
2023-05-14T02:40:16.781Z,24.077622
2023-05-14T02:45:16.297Z,23.836620
2023-05-14T02:50:15.743Z,23.711111
2023-05-14T02:55:15.691Z,23.622222
2023-05-14T03:00:16.228Z,23.475524
2023-05-14T03:05:15.605Z,23.339583
2023-05-14T03:10:16.012Z,23.297887
2023-05-14T03:15:15.866Z,23.148227
2023-05-14T03:20:16.547Z,22.994326
2023-05-14T03:25:16.714Z,23.015603
2023-05-14T03:30:16.119Z,23.152817
2023-05-14T03:35:15.834Z,23.296454
2023-05-14T03:40:15.792Z,23.269014
2023-05-14T03:45:16.537Z,23.321986
2023-05-14T03:50:16.577Z,23.253191
2023-05-14T03:55:16.531Z,23.431206
2023-05-14T04:00:16.617Z,23.320423
2023-05-14T04:05:15.719Z,22.820423
2023-05-14T04:10:15.492Z,22.685106
2023-05-14T04:15:16.252Z,22.554225
2023-05-14T04:20:16.934Z,22.441135
2023-05-14T04:25:16.476Z,22.273944
2023-05-14T04:30:15.899Z,22.118440
2023-05-14T04:35:16.734Z,22.150000
2023-05-14T04:40:15.764Z,21.922222
2023-05-14T04:45:16.435Z,21.809859
2023-05-14T04:50:16.328Z,21.741844
2023-05-14T04:55:15.749Z,21.692254
2023-05-14T05:00:16.482Z,21.447552
2023-05-14T05:05:16.117Z,21.374648
2023-05-14T05:10:15.858Z,21.319580
2023-05-14T05:15:16.314Z,21.131915
2023-05-14T05:20:16.016Z,20.877857
2023-05-14T05:25:16.218Z,20.804965
2023-05-14T05:30:16.614Z,20.803546
2023-05-14T05:35:16.618Z,20.634286
2023-05-14T05:40:15.929Z,20.481560
2023-05-14T05:45:15.977Z,20.426950
2023-05-14T05:50:15.938Z,20.243972
2023-05-14T05:55:16.440Z,19.922143
2023-05-14T06:00:16.318Z,19.719286
2023-05-14T06:05:15.961Z,19.472535
2023-05-14T06:10:16.781Z,19.378571
2023-05-14T06:15:15.687Z,19.036620
2023-05-14T06:20:15.944Z,19.024823
2023-05-14T06:25:16.106Z,18.929078
2023-05-14T06:30:16.100Z,18.627660
2023-05-14T06:35:16.412Z,18.311972
2023-05-14T06:40:16.133Z,18.188028
2023-05-14T06:45:16.260Z,18.088811
2023-05-14T06:50:15.750Z,18.113287
2023-05-14T06:55:16.189Z,18.241259
2023-05-14T07:00:16.272Z,18.064336
2023-05-14T07:05:16.169Z,18.180282
2023-05-14T07:10:15.754Z,18.045455
2023-05-14T07:15:15.877Z,18.046099
2023-05-14T07:20:15.756Z,17.807746
2023-05-14T07:25:15.847Z,17.723944
2023-05-14T07:30:16.247Z,17.772917
2023-05-14T07:35:16.690Z,17.894444
2023-05-14T07:40:15.773Z,17.782069
2023-05-14T07:45:16.082Z,17.708276
2023-05-14T07:50:16.277Z,17.839583
2023-05-14T07:55:16.249Z,17.791034
2023-05-14T08:00:16.712Z,17.773103
2023-05-14T08:05:15.688Z,17.715862
2023-05-14T08:10:16.275Z,17.623448
2023-05-14T08:15:16.893Z,17.617361
2023-05-14T08:20:15.858Z,17.673103
2023-05-14T08:25:15.916Z,17.700000
2023-05-14T08:30:15.885Z,17.692361
2023-05-14T08:35:15.996Z,17.667361
2023-05-14T08:40:16.168Z,17.494483
2023-05-14T08:45:16.004Z,17.444828
2023-05-14T08:50:15.820Z,17.122759
2023-05-14T08:55:16.234Z,16.949306
2023-05-14T09:00:16.362Z,16.749655
2023-05-14T09:05:16.375Z,16.665517
2023-05-14T09:10:16.054Z,16.757534
2023-05-14T09:15:16.279Z,16.747552
2023-05-14T09:20:15.841Z,16.725000
2023-05-14T09:25:16.585Z,16.652448
2023-05-14T09:30:15.722Z,16.562238
2023-05-14T09:35:15.827Z,16.721127
2023-05-14T09:40:15.943Z,16.622535
2023-05-14T09:45:16.903Z,16.556738
2023-05-14T09:50:15.965Z,16.635211
2023-05-14T09:55:15.799Z,16.308511
2023-05-14T10:00:15.857Z,16.231206
2023-05-14T10:05:17.083Z,16.288652
2023-05-14T10:10:16.126Z,16.254930
2023-05-14T10:15:15.987Z,16.093617
2023-05-14T10:20:15.865Z,16.069718
2023-05-14T10:25:16.233Z,16.162238
2023-05-14T10:30:16.332Z,15.741958
2023-05-14T10:35:17.183Z,16.005517
2023-05-14T10:40:15.792Z,16.099310
2023-05-14T10:45:16.139Z,15.823077
2023-05-14T10:50:15.893Z,15.499306
2023-05-14T10:55:16.530Z,15.405594
2023-05-14T11:00:16.169Z,15.560993
2023-05-14T11:05:16.337Z,15.848227
2023-05-14T11:10:15.851Z,16.010638
2023-05-14T11:15:16.166Z,15.832394
2023-05-14T11:20:15.871Z,15.326950
2023-05-14T11:25:15.815Z,15.228873
2023-05-14T11:30:17.346Z,15.515493
2023-05-14T11:35:16.205Z,15.865493
2023-05-14T11:40:16.021Z,15.709790
2023-05-14T11:45:15.856Z,15.630070
2023-05-14T11:50:16.067Z,15.900704
2023-05-14T11:55:15.773Z,15.877305
2023-05-14T12:00:16.392Z,15.840845
2023-05-14T12:05:16.534Z,15.606338
2023-05-14T12:10:16.241Z,15.531206
2023-05-14T12:15:15.941Z,15.572535
2023-05-14T12:20:16.510Z,15.819718
2023-05-14T12:25:16.608Z,15.941259
2023-05-14T12:30:21.905Z,15.630070
2023-05-14T12:35:16.416Z,16.030769
2023-05-14T12:40:16.789Z,16.002817
2023-05-14T12:45:15.823Z,15.648592
2023-05-14T12:50:15.830Z,15.867832
2023-05-14T12:55:16.074Z,16.002857
2023-05-14T13:00:16.000Z,16.339007
2023-05-14T13:05:16.115Z,16.985000
2023-05-14T13:10:16.069Z,17.461702
2023-05-14T13:15:15.889Z,18.100704
2023-05-14T13:20:16.717Z,18.907746
2023-05-14T13:25:15.807Z,19.547183
2023-05-14T13:30:16.129Z,19.531469
2023-05-14T13:35:16.844Z,20.200694
2023-05-14T13:40:16.989Z,20.441958
2023-05-14T13:45:16.529Z,20.588028
2023-05-14T13:50:16.269Z,20.243357
2023-05-14T13:55:16.823Z,20.303497
2023-05-14T14:00:15.822Z,19.471831
2023-05-14T14:05:15.745Z,19.445139
2023-05-14T14:10:16.459Z,19.271034
2023-05-14T14:15:16.840Z,19.015862
2023-05-14T14:20:16.065Z,18.724306
2023-05-14T14:25:15.924Z,18.826897
2023-05-14T14:30:17.232Z,18.865972
2023-05-14T14:35:17.602Z,19.181250
2023-05-14T14:40:16.403Z,19.485417
2023-05-14T14:45:15.900Z,19.434965
2023-05-14T14:50:15.847Z,19.628169
2023-05-14T14:55:16.291Z,19.671831
2023-05-14T15:00:16.370Z,19.949645
2023-05-14T15:05:16.278Z,20.171528
2023-05-14T15:10:15.904Z,20.454545
2023-05-14T15:15:16.151Z,20.959441
2023-05-14T15:20:15.798Z,21.284722
2023-05-14T15:25:16.363Z,21.392361
2023-05-14T15:30:16.336Z,22.038298
2023-05-14T15:35:16.311Z,21.972340
2023-05-14T15:40:15.850Z,21.609155
2023-05-14T15:45:16.486Z,21.387943
2023-05-14T15:50:20.693Z,20.412676
2023-05-14T15:55:15.744Z,20.067606
2023-05-14T16:00:15.770Z,19.968085
2023-05-14T16:05:15.855Z,19.812587
2023-05-14T16:10:16.627Z,19.758865
2023-05-14T16:15:16.008Z,20.112676
2023-05-14T16:20:15.945Z,20.448252
2023-05-14T16:25:17.134Z,20.731944
2023-05-14T16:30:15.704Z,21.660839
2023-05-14T16:35:16.149Z,21.220139
2023-05-14T16:40:15.737Z,21.069504
2023-05-14T16:45:15.800Z,21.588732
2023-05-14T16:50:15.710Z,22.129577
2023-05-14T16:55:16.526Z,23.048276
2023-05-14T17:00:16.928Z,23.091096
2023-05-14T17:05:15.910Z,23.559589
2023-05-14T17:10:17.008Z,23.633103
2023-05-14T17:15:16.611Z,23.224476
2023-05-14T17:20:17.163Z,22.414583
2023-05-14T17:25:16.514Z,22.295070
2023-05-14T17:30:16.046Z,22.247887
2023-05-14T17:35:16.398Z,21.959859
2023-05-14T17:40:16.420Z,21.640278
2023-05-14T17:45:16.198Z,21.974825
2023-05-14T17:50:16.474Z,21.371528
2023-05-14T17:55:17.493Z,21.352778
2023-05-14T18:00:16.202Z,22.109722
2023-05-14T18:05:16.770Z,22.861379
2023-05-14T18:10:16.119Z,23.316552
2023-05-14T18:15:15.908Z,23.717606
2023-05-14T18:20:16.392Z,24.128472
2023-05-14T18:25:16.800Z,24.362411
2023-05-14T18:30:16.005Z,24.444366
2023-05-14T18:35:15.856Z,24.588112
2023-05-14T18:40:18.457Z,24.754545
2023-05-14T18:45:16.161Z,25.106338
2023-05-14T18:50:15.802Z,24.990780
2023-05-14T18:55:16.050Z,25.044056
2023-05-14T19:00:16.726Z,25.242958
2023-05-14T19:05:15.975Z,25.641667
2023-05-14T19:10:16.349Z,25.282517
2023-05-14T19:15:15.728Z,25.632624
2023-05-14T19:20:16.389Z,25.800000
2023-05-14T19:25:15.794Z,25.367606
2023-05-14T19:30:16.733Z,25.410490
2023-05-14T19:35:15.805Z,25.850350
2023-05-14T19:40:16.756Z,25.261538
2023-05-14T19:45:16.343Z,25.428873
2023-05-14T19:50:16.381Z,25.816901
2023-05-14T19:55:16.315Z,25.458741
2023-05-14T20:00:15.716Z,26.079021
2023-05-14T20:05:16.549Z,26.077083
2023-05-14T20:10:16.226Z,25.965972
2023-05-14T20:15:15.714Z,26.034965
2023-05-14T20:20:15.919Z,26.096503
2023-05-14T20:25:15.813Z,26.535915
2023-05-14T20:30:16.293Z,26.485315
2023-05-14T20:35:16.615Z,26.583688
2023-05-14T20:40:16.252Z,27.066667
2023-05-14T20:45:16.319Z,26.859155
2023-05-14T20:50:16.235Z,27.119014
2023-05-14T20:55:15.727Z,26.960284
2023-05-14T21:00:16.024Z,27.015000
2023-05-14T21:05:16.800Z,27.011348
2023-05-14T21:10:16.879Z,27.381560
2023-05-14T21:15:15.766Z,27.094326
2023-05-14T21:20:17.181Z,27.162143
2023-05-14T21:25:16.509Z,27.331429
2023-05-14T21:30:16.079Z,27.450355
2023-05-14T21:35:16.092Z,27.605674
2023-05-14T21:40:16.106Z,27.615603
2023-05-14T21:45:15.988Z,27.742553
2023-05-14T21:50:15.900Z,28.250704
2023-05-14T21:55:15.894Z,28.248951
2023-05-14T22:00:16.321Z,28.249286
2023-05-14T22:05:15.708Z,28.257857
2023-05-14T22:10:16.515Z,28.523404
2023-05-14T22:15:16.845Z,28.564286
2023-05-14T22:20:16.566Z,28.749286
2023-05-14T22:25:17.161Z,28.731206
2023-05-14T22:30:16.022Z,28.227143
2023-05-14T22:35:16.119Z,27.917021
2023-05-14T22:40:16.250Z,28.162411
2023-05-14T22:45:16.057Z,28.371631
2023-05-14T22:50:16.404Z,28.325532
2023-05-14T22:55:15.999Z,28.294326
2023-05-14T23:00:16.142Z,28.447887
2023-05-14T23:05:16.051Z,28.508451
2023-05-14T23:10:16.841Z,28.453846
2023-05-14T23:15:15.629Z,28.516312
2023-05-14T23:20:15.966Z,28.282979
2023-05-14T23:25:15.890Z,28.333813
2023-05-14T23:30:17.558Z,28.432857
2023-05-14T23:35:15.584Z,28.600000
2023-05-14T23:40:17.526Z,28.650714
2023-05-14T23:45:15.822Z,28.870213
2023-05-14T23:50:15.707Z,29.175177
2023-05-14T23:55:15.821Z,29.238571
